Eastern Oregon Regional At Pendleton Airport
KPDT : now visible

Airfield :











YOU CAN JOIN US ON...

 
LOGIN :

Register | Disclaimer

   EN    FR    IT 

 









Legend :    VFR   Marginal VFR   IFR   Intensive IFR   Very Intensive IFR
Visi :
Ceiling :
>= 8 km
>= 3000ft
5 to 8 km
1000 to 3000 ft
1500m to 5 km
500 to 1000 ft
800 to 1500m
200 to 500 ft
< 800m
< 200 ft
Symbols :   Thunderstorms  Fog  Heavy snow  Heavy precipitations  Wind > 20 kt






- Airport Elevation : 1497 ft


KPDT - Eastern Oregon Regional At Pendleton

CURRENT METAR :
  • 172353Z 33010G14KT 10SM CLR 30/02 A3004 RMK AO2 SLP158 T03000022 10300 20239 56016

EXPIRED METARs :
  • 172253Z 31006KT 10SM CLR 30/02 A3005 RMK AO2 SLP164 T03000022
  • 172153Z VRB03KT 10SM CLR 29/00 A3007 RMK AO2 SLP169 T02940000

TAF KPDT
Valid from the 18 at 00:00 until the 19 at 00:00 UTC


172320Z 1800/1824 34008KT P6SM SKC
FM180400 14008KT P6SM SKC
FM181500 30008KT P6SM SKC
KZSE FIR / North America



MET'MAP, your aeronautical weather chart ! - Copyright ORBIFLY December 2007 - Disclaimer

ORBIFLY MET'MAP TEAM :

Programming & Development : Alexandra Zaïnal
Concept & original design : Baudouin d'Aumeries
Assistance for programming : Marc-Olivier Méhu
Technical & hardware support : Manuel Goepfert

Contact : metmap@orbifly.com




SOURCES & CREDITS :

   NOAA       Earth
Advisory